Aeroporto :
LOGIN :

Iscrizione | Disclaimer

   EN    FR    IT 

 










Sommario :    VFR   VFR Marginale   IFR   IFR Intensivo   IFR Molto Intensivo
Visibilità : 
Base nubi : 
>= 8 km
>= 3000ft
5 / 8 km
1000 / 3000 ft
1500m / 5 km
500 / 1000 ft
800 / 1500m
200 / 500 ft
< 800m
< 200 ft
Simboli :   Temporali  Nebbia  Neve Forte  Precipitazioni Forti  Vento > 20 kt
SIGMETs :   Varie  Temporali  Ghiacco  Turbolenza  Onda orograficha  Ceneri Vulcaniche






- Altitudine del aeroporto : 187 ft


ETNW - Wunstorf AB

ULTIMO METAR :
  • 200320Z 36002KT 0200 FG VV001 02/02 Q1019 RED

METARs OBSOLETI :
  • 200220Z 00000KT 0400 FG VV001 02/02 Q1019 RED
  • 200120Z 18004KT 0600 FG FEW060 01/01 Q1019 RED

TAF TAF ETNW
Valido dal 20 a 00 ore il 21 a 00 ore UTC


192305Z 2000/2024 22005KT 4000 NSW SCT012 BKN025
BECMG 2000/2001 23005KT 3000 BR SCT050
TEMPO 2001/2009 VRB01KT 0500 FG VV001
BECMG 2009/2011 VRB03KT 8000 NSW BKN020
BECMG 2015/2017 VRB02KT 6000 NSW SCT020 BY ETGL



MetMap, La meteo Aeronautica in un colpo d'occhio ! - Copyright ORBIFLY Dicembre 2007 - Disclaimer

ORBIFLY MET'MAP TEAM :

Programmazione e sviluppo : Alexandra Zaïnal
Concezione e sviluppo : Baudouin d'Aumeries
Co-Programmazione e sviluppo : Marc-Olivier Méhu
Supporto tecnico e logistico : Manuel Goepfert
Aiuto per la traduzione : Arnaldo La Scala

Contatto : metmap@orbifly.com




FONTI E CREDITI :

   NOAA